sensor_id;sensor_type;location;lat;lon;timestamp;temperature;humidity
46139;DHT22;32398;49.112;8.598;2024-01-30T00:00:47;4.20;99.90
46139;DHT22;32398;49.112;8.598;2024-01-30T00:03:14;4.20;99.90
46139;DHT22;32398;49.112;8.598;2024-01-30T00:05:40;4.20;99.90
46139;DHT22;32398;49.112;8.598;2024-01-30T00:08:08;4.20;99.90
46139;DHT22;32398;49.112;8.598;2024-01-30T00:10:35;4.10;99.90
46139;DHT22;32398;49.112;8.598;2024-01-30T00:13:01;4.20;99.90
46139;DHT22;32398;49.112;8.598;2024-01-30T00:15:28;4.10;99.90
46139;DHT22;32398;49.112;8.598;2024-01-30T00:17:55;4.10;99.90
46139;DHT22;32398;49.112;8.598;2024-01-30T00:20:22;4.10;99.90
46139;DHT22;32398;49.112;8.598;2024-01-30T00:22:48;4.10;99.90
46139;DHT22;32398;49.112;8.598;2024-01-30T00:25:16;4.10;99.90
46139;DHT22;32398;49.112;8.598;2024-01-30T00:27:43;4.10;99.90
46139;DHT22;32398;49.112;8.598;2024-01-30T00:30:10;4.10;99.90
46139;DHT22;32398;49.112;8.598;2024-01-30T00:32:36;4.00;99.90
46139;DHT22;32398;49.112;8.598;2024-01-30T00:35:03;4.00;99.90
46139;DHT22;32398;49.112;8.598;2024-01-30T00:37:30;4.00;99.90
46139;DHT22;32398;49.112;8.598;2024-01-30T00:39:57;4.00;99.90
46139;DHT22;32398;49.112;8.598;2024-01-30T00:42:25;4.00;99.90
46139;DHT22;32398;49.112;8.598;2024-01-30T00:44:51;4.00;99.90
46139;DHT22;32398;49.112;8.598;2024-01-30T00:47:18;3.90;99.90
46139;DHT22;32398;49.112;8.598;2024-01-30T00:49:44;4.00;99.90
46139;DHT22;32398;49.112;8.598;2024-01-30T00:52:11;3.90;99.90
46139;DHT22;32398;49.112;8.598;2024-01-30T00:54:37;3.90;99.90
46139;DHT22;32398;49.112;8.598;2024-01-30T00:57:04;3.90;99.90
46139;DHT22;32398;49.112;8.598;2024-01-30T00:59:32;3.90;99.90
46139;DHT22;32398;49.112;8.598;2024-01-30T01:01:59;3.90;99.90
46139;DHT22;32398;49.112;8.598;2024-01-30T01:04:25;3.90;99.90
46139;DHT22;32398;49.112;8.598;2024-01-30T01:06:52;3.80;99.90
46139;DHT22;32398;49.112;8.598;2024-01-30T01:09:19;3.80;99.90
46139;DHT22;32398;49.112;8.598;2024-01-30T01:11:45;3.80;99.90
46139;DHT22;32398;49.112;8.598;2024-01-30T01:14:13;3.80;99.90
46139;DHT22;32398;49.112;8.598;2024-01-30T01:16:40;3.80;99.90
46139;DHT22;32398;49.112;8.598;2024-01-30T01:19:07;3.70;99.90
46139;DHT22;32398;49.112;8.598;2024-01-30T01:21:33;3.70;99.90
46139;DHT22;32398;49.112;8.598;2024-01-30T01:24:00;3.70;99.90
46139;DHT22;32398;49.112;8.598;2024-01-30T01:26:26;3.70;99.90
46139;DHT22;32398;49.112;8.598;2024-01-30T01:28:53;3.70;99.90
46139;DHT22;32398;49.112;8.598;2024-01-30T01:31:19;3.70;99.90
46139;DHT22;32398;49.112;8.598;2024-01-30T01:33:51;3.70;99.90
46139;DHT22;32398;49.112;8.598;2024-01-30T01:36:18;3.60;99.90
46139;DHT22;32398;49.112;8.598;2024-01-30T01:38:44;3.60;99.90
46139;DHT22;32398;49.112;8.598;2024-01-30T01:41:11;3.60;99.90
46139;DHT22;32398;49.112;8.598;2024-01-30T01:43:37;3.60;99.90
46139;DHT22;32398;49.112;8.598;2024-01-30T01:46:04;3.60;99.90
46139;DHT22;32398;49.112;8.598;2024-01-30T01:48:31;3.60;99.90
46139;DHT22;32398;49.112;8.598;2024-01-30T01:50:59;3.60;99.90
46139;DHT22;32398;49.112;8.598;2024-01-30T01:53:25;3.60;99.90
46139;DHT22;32398;49.112;8.598;2024-01-30T01:55:52;3.60;99.90
46139;DHT22;32398;49.112;8.598;2024-01-30T01:58:20;3.60;99.90
46139;DHT22;32398;49.112;8.598;2024-01-30T02:00:47;3.60;99.90
46139;DHT22;32398;49.112;8.598;2024-01-30T02:03:14;3.60;99.90
46139;DHT22;32398;49.112;8.598;2024-01-30T02:05:41;3.50;99.90
46139;DHT22;32398;49.112;8.598;2024-01-30T02:08:09;3.50;99.90
46139;DHT22;32398;49.112;8.598;2024-01-30T02:10:36;3.50;99.90
46139;DHT22;32398;49.112;8.598;2024-01-30T02:13:02;3.50;99.90
46139;DHT22;32398;49.112;8.598;2024-01-30T02:15:30;3.50;99.90
46139;DHT22;32398;49.112;8.598;2024-01-30T02:17:56;3.50;99.90
46139;DHT22;32398;49.112;8.598;2024-01-30T02:20:23;3.50;99.90
46139;DHT22;32398;49.112;8.598;2024-01-30T02:22:52;3.40;99.90
46139;DHT22;32398;49.112;8.598;2024-01-30T02:25:18;3.40;99.90
46139;DHT22;32398;49.112;8.598;2024-01-30T02:27:45;3.40;99.90
46139;DHT22;32398;49.112;8.598;2024-01-30T02:30:12;3.40;99.90
46139;DHT22;32398;49.112;8.598;2024-01-30T02:32:38;3.40;99.90
46139;DHT22;32398;49.112;8.598;2024-01-30T02:35:05;3.30;99.90
46139;DHT22;32398;49.112;8.598;2024-01-30T02:37:31;3.40;99.90
46139;DHT22;32398;49.112;8.598;2024-01-30T02:39:59;3.40;99.90
46139;DHT22;32398;49.112;8.598;2024-01-30T02:42:26;3.30;99.90
46139;DHT22;32398;49.112;8.598;2024-01-30T02:44:52;3.30;99.90
46139;DHT22;32398;49.112;8.598;2024-01-30T02:47:19;3.30;99.90
46139;DHT22;32398;49.112;8.598;2024-01-30T02:49:45;3.30;99.90
46139;DHT22;32398;49.112;8.598;2024-01-30T02:52:12;3.30;99.90
46139;DHT22;32398;49.112;8.598;2024-01-30T02:54:38;3.30;99.90
46139;DHT22;32398;49.112;8.598;2024-01-30T02:57:06;3.30;99.90
46139;DHT22;32398;49.112;8.598;2024-01-30T02:59:33;3.20;99.90
46139;DHT22;32398;49.112;8.598;2024-01-30T03:02:01;3.20;99.90
46139;DHT22;32398;49.112;8.598;2024-01-30T03:04:27;3.20;99.90
46139;DHT22;32398;49.112;8.598;2024-01-30T03:06:55;3.20;99.90
46139;DHT22;32398;49.112;8.598;2024-01-30T03:09:21;3.20;99.90
46139;DHT22;32398;49.112;8.598;2024-01-30T03:11:48;3.20;99.90
46139;DHT22;32398;49.112;8.598;2024-01-30T03:14:16;3.20;99.90
46139;DHT22;32398;49.112;8.598;2024-01-30T03:16:43;3.20;99.90
46139;DHT22;32398;49.112;8.598;2024-01-30T03:19:09;3.20;99.90
46139;DHT22;32398;49.112;8.598;2024-01-30T03:21:36;3.20;99.90
46139;DHT22;32398;49.112;8.598;2024-01-30T03:24:02;3.20;99.90
46139;DHT22;32398;49.112;8.598;2024-01-30T03:26:29;3.10;99.90
46139;DHT22;32398;49.112;8.598;2024-01-30T03:28:56;3.20;99.90
46139;DHT22;32398;49.112;8.598;2024-01-30T03:31:23;3.10;99.90
46139;DHT22;32398;49.112;8.598;2024-01-30T03:33:50;3.10;99.90
46139;DHT22;32398;49.112;8.598;2024-01-30T03:36:16;3.10;99.90
46139;DHT22;32398;49.112;8.598;2024-01-30T03:38:43;3.10;99.90
46139;DHT22;32398;49.112;8.598;2024-01-30T03:41:10;3.10;99.90
46139;DHT22;32398;49.112;8.598;2024-01-30T03:43:36;3.10;99.90
46139;DHT22;32398;49.112;8.598;2024-01-30T03:46:03;3.00;99.90
46139;DHT22;32398;49.112;8.598;2024-01-30T03:48:31;3.10;99.90
46139;DHT22;32398;49.112;8.598;2024-01-30T03:50:57;3.10;99.90
46139;DHT22;32398;49.112;8.598;2024-01-30T03:53:24;3.00;99.90
46139;DHT22;32398;49.112;8.598;2024-01-30T03:55:50;3.00;99.90
46139;DHT22;32398;49.112;8.598;2024-01-30T03:58:17;3.00;99.90
46139;DHT22;32398;49.112;8.598;2024-01-30T04:00:43;3.00;99.90
46139;DHT22;32398;49.112;8.598;2024-01-30T04:03:12;3.00;99.90
46139;DHT22;32398;49.112;8.598;2024-01-30T04:05:40;3.00;99.90
46139;DHT22;32398;49.112;8.598;2024-01-30T04:08:07;3.00;99.90
46139;DHT22;32398;49.112;8.598;2024-01-30T04:10:33;2.90;99.90
46139;DHT22;32398;49.112;8.598;2024-01-30T04:13:00;2.90;99.90
46139;DHT22;32398;49.112;8.598;2024-01-30T04:15:27;2.90;99.90
46139;DHT22;32398;49.112;8.598;2024-01-30T04:17:56;2.90;99.90
46139;DHT22;32398;49.112;8.598;2024-01-30T04:20:23;2.90;99.90
46139;DHT22;32398;49.112;8.598;2024-01-30T04:22:51;2.90;99.90
46139;DHT22;32398;49.112;8.598;2024-01-30T04:25:17;2.90;99.90
46139;DHT22;32398;49.112;8.598;2024-01-30T04:27:44;2.90;99.90
46139;DHT22;32398;49.112;8.598;2024-01-30T04:30:11;2.80;99.90
46139;DHT22;32398;49.112;8.598;2024-01-30T04:32:37;2.80;99.90
46139;DHT22;32398;49.112;8.598;2024-01-30T04:35:04;2.80;99.90
46139;DHT22;32398;49.112;8.598;2024-01-30T04:37:30;2.80;99.90
46139;DHT22;32398;49.112;8.598;2024-01-30T04:39:58;2.80;99.90
46139;DHT22;32398;49.112;8.598;2024-01-30T04:42:25;2.80;99.90
46139;DHT22;32398;49.112;8.598;2024-01-30T04:44:51;2.80;99.90
46139;DHT22;32398;49.112;8.598;2024-01-30T04:47:18;2.80;99.90
46139;DHT22;32398;49.112;8.598;2024-01-30T04:49:44;2.80;99.90
46139;DHT22;32398;49.112;8.598;2024-01-30T04:52:11;2.70;99.90
46139;DHT22;32398;49.112;8.598;2024-01-30T04:54:37;2.70;99.90
46139;DHT22;32398;49.112;8.598;2024-01-30T04:57:05;2.70;99.90
46139;DHT22;32398;49.112;8.598;2024-01-30T04:59:34;2.70;99.90
46139;DHT22;32398;49.112;8.598;2024-01-30T05:02:01;2.70;99.90
46139;DHT22;32398;49.112;8.598;2024-01-30T05:04:27;2.70;99.90
46139;DHT22;32398;49.112;8.598;2024-01-30T05:06:54;2.70;99.90
46139;DHT22;32398;49.112;8.598;2024-01-30T05:09:20;2.60;99.90
46139;DHT22;32398;49.112;8.598;2024-01-30T05:11:46;2.60;99.90
46139;DHT22;32398;49.112;8.598;2024-01-30T05:14:14;2.60;99.90
46139;DHT22;32398;49.112;8.598;2024-01-30T05:16:41;2.60;99.90
46139;DHT22;32398;49.112;8.598;2024-01-30T05:19:12;2.60;99.90
46139;DHT22;32398;49.112;8.598;2024-01-30T05:21:38;2.60;99.90
46139;DHT22;32398;49.112;8.598;2024-01-30T05:24:05;2.60;99.90
46139;DHT22;32398;49.112;8.598;2024-01-30T05:26:32;2.60;99.90
46139;DHT22;32398;49.112;8.598;2024-01-30T05:28:58;2.50;99.90
46139;DHT22;32398;49.112;8.598;2024-01-30T05:31:26;2.60;99.90
46139;DHT22;32398;49.112;8.598;2024-01-30T05:33:53;2.50;99.90
46139;DHT22;32398;49.112;8.598;2024-01-30T05:36:20;2.50;99.90
46139;DHT22;32398;49.112;8.598;2024-01-30T05:38:47;2.50;99.90
46139;DHT22;32398;49.112;8.598;2024-01-30T05:41:13;2.50;99.90
46139;DHT22;32398;49.112;8.598;2024-01-30T05:43:40;2.50;99.90
46139;DHT22;32398;49.112;8.598;2024-01-30T05:46:06;2.50;99.90
46139;DHT22;32398;49.112;8.598;2024-01-30T05:48:35;2.50;99.90
46139;DHT22;32398;49.112;8.598;2024-01-30T05:51:01;2.50;99.90
46139;DHT22;32398;49.112;8.598;2024-01-30T05:53:29;2.50;99.90
46139;DHT22;32398;49.112;8.598;2024-01-30T05:55:55;2.50;99.90
46139;DHT22;32398;49.112;8.598;2024-01-30T05:58:22;2.40;99.90
46139;DHT22;32398;49.112;8.598;2024-01-30T06:00:48;2.30;99.90
46139;DHT22;32398;49.112;8.598;2024-01-30T06:03:15;2.30;99.90
46139;DHT22;32398;49.112;8.598;2024-01-30T06:05:43;2.30;99.90
46139;DHT22;32398;49.112;8.598;2024-01-30T06:08:09;2.30;99.90
46139;DHT22;32398;49.112;8.598;2024-01-30T06:10:36;2.30;99.90
46139;DHT22;32398;49.112;8.598;2024-01-30T06:13:03;2.30;99.90
46139;DHT22;32398;49.112;8.598;2024-01-30T06:15:29;2.30;99.90
46139;DHT22;32398;49.112;8.598;2024-01-30T06:17:57;2.30;99.90
46139;DHT22;32398;49.112;8.598;2024-01-30T06:20:24;2.30;99.90
46139;DHT22;32398;49.112;8.598;2024-01-30T06:22:52;2.30;99.90
46139;DHT22;32398;49.112;8.598;2024-01-30T06:25:18;2.30;99.90
46139;DHT22;32398;49.112;8.598;2024-01-30T06:27:45;2.30;99.90
46139;DHT22;32398;49.112;8.598;2024-01-30T06:30:12;2.30;99.90
46139;DHT22;32398;49.112;8.598;2024-01-30T06:32:38;2.30;99.90
46139;DHT22;32398;49.112;8.598;2024-01-30T06:35:05;2.30;99.90
46139;DHT22;32398;49.112;8.598;2024-01-30T06:37:32;2.30;99.90
46139;DHT22;32398;49.112;8.598;2024-01-30T06:40:00;2.30;99.90
46139;DHT22;32398;49.112;8.598;2024-01-30T06:42:26;2.20;99.90
46139;DHT22;32398;49.112;8.598;2024-01-30T06:44:53;2.20;99.90
46139;DHT22;32398;49.112;8.598;2024-01-30T06:47:19;2.20;99.90
46139;DHT22;32398;49.112;8.598;2024-01-30T06:49:46;2.20;99.90
46139;DHT22;32398;49.112;8.598;2024-01-30T06:52:12;2.20;99.90
46139;DHT22;32398;49.112;8.598;2024-01-30T06:54:39;2.20;99.90
46139;DHT22;32398;49.112;8.598;2024-01-30T06:57:07;2.20;99.90
46139;DHT22;32398;49.112;8.598;2024-01-30T06:59:36;2.20;99.90
46139;DHT22;32398;49.112;8.598;2024-01-30T07:02:07;2.20;99.90
46139;DHT22;32398;49.112;8.598;2024-01-30T07:04:33;2.20;99.90
46139;DHT22;32398;49.112;8.598;2024-01-30T07:07:00;2.20;99.90
46139;DHT22;32398;49.112;8.598;2024-01-30T07:09:26;2.10;99.90
46139;DHT22;32398;49.112;8.598;2024-01-30T07:11:54;2.10;99.90
46139;DHT22;32398;49.112;8.598;2024-01-30T07:14:25;2.10;99.90
46139;DHT22;32398;49.112;8.598;2024-01-30T07:16:51;2.10;99.90
46139;DHT22;32398;49.112;8.598;2024-01-30T07:19:18;2.10;99.90
46139;DHT22;32398;49.112;8.598;2024-01-30T07:21:44;2.20;99.90
46139;DHT22;32398;49.112;8.598;2024-01-30T07:24:11;2.10;99.90
46139;DHT22;32398;49.112;8.598;2024-01-30T07:26:38;2.10;99.90
46139;DHT22;32398;49.112;8.598;2024-01-30T07:29:04;2.10;99.90
46139;DHT22;32398;49.112;8.598;2024-01-30T07:31:32;2.10;99.90
46139;DHT22;32398;49.112;8.598;2024-01-30T07:33:58;2.10;99.90
46139;DHT22;32398;49.112;8.598;2024-01-30T07:36:25;2.10;99.90
46139;DHT22;32398;49.112;8.598;2024-01-30T07:38:52;2.10;99.90
46139;DHT22;32398;49.112;8.598;2024-01-30T07:41:19;2.10;99.90
46139;DHT22;32398;49.112;8.598;2024-01-30T07:43:46;2.10;99.90
46139;DHT22;32398;49.112;8.598;2024-01-30T07:46:12;2.10;99.90
46139;DHT22;32398;49.112;8.598;2024-01-30T07:48:40;2.10;99.90
46139;DHT22;32398;49.112;8.598;2024-01-30T07:51:07;2.10;99.90
46139;DHT22;32398;49.112;8.598;2024-01-30T07:53:33;2.10;99.90
46139;DHT22;32398;49.112;8.598;2024-01-30T07:56:00;2.10;99.90
46139;DHT22;32398;49.112;8.598;2024-01-30T07:58:26;2.10;99.90
46139;DHT22;32398;49.112;8.598;2024-01-30T08:00:53;2.00;99.90
46139;DHT22;32398;49.112;8.598;2024-01-30T08:03:22;2.10;99.90
46139;DHT22;32398;49.112;8.598;2024-01-30T08:05:50;2.10;99.90
46139;DHT22;32398;49.112;8.598;2024-01-30T08:08:16;2.10;99.90
46139;DHT22;32398;49.112;8.598;2024-01-30T08:10:43;2.00;99.90
46139;DHT22;32398;49.112;8.598;2024-01-30T08:13:09;2.10;99.90
46139;DHT22;32398;49.112;8.598;2024-01-30T08:15:36;2.10;99.90
46139;DHT22;32398;49.112;8.598;2024-01-30T08:18:03;2.10;99.90
46139;DHT22;32398;49.112;8.598;2024-01-30T08:20:31;2.10;99.90
46139;DHT22;32398;49.112;8.598;2024-01-30T08:22:59;2.10;99.90
46139;DHT22;32398;49.112;8.598;2024-01-30T08:25:25;2.10;99.90
46139;DHT22;32398;49.112;8.598;2024-01-30T08:27:52;2.10;99.90
46139;DHT22;32398;49.112;8.598;2024-01-30T08:30:18;2.10;99.90
46139;DHT22;32398;49.112;8.598;2024-01-30T08:32:45;2.10;99.90
46139;DHT22;32398;49.112;8.598;2024-01-30T08:35:12;2.10;99.90
46139;DHT22;32398;49.112;8.598;2024-01-30T08:37:39;2.10;99.90
46139;DHT22;32398;49.112;8.598;2024-01-30T08:40:07;2.10;99.90
46139;DHT22;32398;49.112;8.598;2024-01-30T08:42:34;2.10;99.90
46139;DHT22;32398;49.112;8.598;2024-01-30T08:45:01;2.10;99.90
46139;DHT22;32398;49.112;8.598;2024-01-30T08:47:27;2.10;99.90
46139;DHT22;32398;49.112;8.598;2024-01-30T08:49:54;2.10;99.90
46139;DHT22;32398;49.112;8.598;2024-01-30T08:52:20;2.20;99.90
46139;DHT22;32398;49.112;8.598;2024-01-30T08:54:47;2.20;99.90
46139;DHT22;32398;49.112;8.598;2024-01-30T08:57:15;2.20;99.90
46139;DHT22;32398;49.112;8.598;2024-01-30T08:59:41;2.20;99.90
46139;DHT22;32398;49.112;8.598;2024-01-30T09:02:09;2.20;99.90
46139;DHT22;32398;49.112;8.598;2024-01-30T09:04:38;2.20;99.90
46139;DHT22;32398;49.112;8.598;2024-01-30T09:07:04;2.30;99.90
46139;DHT22;32398;49.112;8.598;2024-01-30T09:09:33;2.30;99.90
46139;DHT22;32398;49.112;8.598;2024-01-30T09:12:00;2.40;99.90
46139;DHT22;32398;49.112;8.598;2024-01-30T09:14:31;2.50;99.90
46139;DHT22;32398;49.112;8.598;2024-01-30T09:16:57;2.60;99.90
46139;DHT22;32398;49.112;8.598;2024-01-30T09:19:24;2.80;99.90
46139;DHT22;32398;49.112;8.598;2024-01-30T09:21:50;2.90;99.90
46139;DHT22;32398;49.112;8.598;2024-01-30T09:24:17;3.00;99.90
46139;DHT22;32398;49.112;8.598;2024-01-30T09:26:43;3.00;99.90
46139;DHT22;32398;49.112;8.598;2024-01-30T09:29:10;3.20;99.90
46139;DHT22;32398;49.112;8.598;2024-01-30T09:31:38;3.20;99.90
46139;DHT22;32398;49.112;8.598;2024-01-30T09:34:04;3.30;99.90
46139;DHT22;32398;49.112;8.598;2024-01-30T09:36:31;3.40;99.90
46139;DHT22;32398;49.112;8.598;2024-01-30T09:38:58;3.40;99.90
46139;DHT22;32398;49.112;8.598;2024-01-30T09:41:24;3.50;99.90
46139;DHT22;32398;49.112;8.598;2024-01-30T09:43:51;3.50;99.90
46139;DHT22;32398;49.112;8.598;2024-01-30T09:46:19;3.60;99.90
46139;DHT22;32398;49.112;8.598;2024-01-30T09:48:51;3.60;99.90
46139;DHT22;32398;49.112;8.598;2024-01-30T09:51:18;3.70;99.90
46139;DHT22;32398;49.112;8.598;2024-01-30T09:53:45;3.70;99.90
46139;DHT22;32398;49.112;8.598;2024-01-30T09:56:12;3.70;99.90
46139;DHT22;32398;49.112;8.598;2024-01-30T09:58:38;3.80;99.90
46139;DHT22;32398;49.112;8.598;2024-01-30T10:01:05;3.80;99.90
46139;DHT22;32398;49.112;8.598;2024-01-30T10:03:32;3.90;99.90
46139;DHT22;32398;49.112;8.598;2024-01-30T10:06:00;4.00;99.90
46139;DHT22;32398;49.112;8.598;2024-01-30T10:08:27;4.00;99.90
46139;DHT22;32398;49.112;8.598;2024-01-30T10:10:55;4.00;99.90
46139;DHT22;32398;49.112;8.598;2024-01-30T10:13:21;4.00;99.90
46139;DHT22;32398;49.112;8.598;2024-01-30T10:15:48;4.10;99.90
46139;DHT22;32398;49.112;8.598;2024-01-30T10:18:15;4.10;99.90
46139;DHT22;32398;49.112;8.598;2024-01-30T10:20:42;4.10;99.90
46139;DHT22;32398;49.112;8.598;2024-01-30T10:23:10;4.20;99.90
46139;DHT22;32398;49.112;8.598;2024-01-30T10:25:37;4.20;99.90
46139;DHT22;32398;49.112;8.598;2024-01-30T10:28:04;4.20;99.90
46139;DHT22;32398;49.112;8.598;2024-01-30T10:30:31;4.20;99.90
46139;DHT22;32398;49.112;8.598;2024-01-30T10:32:57;4.30;99.90
46139;DHT22;32398;49.112;8.598;2024-01-30T10:35:24;4.30;99.90
46139;DHT22;32398;49.112;8.598;2024-01-30T10:37:50;4.30;99.90
46139;DHT22;32398;49.112;8.598;2024-01-30T10:40:19;4.40;99.90
46139;DHT22;32398;49.112;8.598;2024-01-30T10:42:47;4.40;99.90
46139;DHT22;32398;49.112;8.598;2024-01-30T10:45:14;4.30;99.90
46139;DHT22;32398;49.112;8.598;2024-01-30T10:47:41;4.40;99.90
46139;DHT22;32398;49.112;8.598;2024-01-30T10:50:09;4.40;99.90
46139;DHT22;32398;49.112;8.598;2024-01-30T10:52:36;4.40;99.90
46139;DHT22;32398;49.112;8.598;2024-01-30T10:55:04;4.50;99.90
46139;DHT22;32398;49.112;8.598;2024-01-30T10:57:32;4.50;99.90
46139;DHT22;32398;49.112;8.598;2024-01-30T11:00:00;4.50;99.90
46139;DHT22;32398;49.112;8.598;2024-01-30T11:02:30;4.60;99.90
46139;DHT22;32398;49.112;8.598;2024-01-30T11:04:58;4.60;99.90
46139;DHT22;32398;49.112;8.598;2024-01-30T11:07:25;4.60;99.90
46139;DHT22;32398;49.112;8.598;2024-01-30T11:09:53;4.60;99.90
46139;DHT22;32398;49.112;8.598;2024-01-30T11:12:21;4.60;99.90
46139;DHT22;32398;49.112;8.598;2024-01-30T11:14:49;4.60;99.90
46139;DHT22;32398;49.112;8.598;2024-01-30T11:17:16;4.70;99.90
46139;DHT22;32398;49.112;8.598;2024-01-30T11:19:43;4.70;99.90
46139;DHT22;32398;49.112;8.598;2024-01-30T11:22:10;4.70;99.90
46139;DHT22;32398;49.112;8.598;2024-01-30T11:24:38;4.80;99.90
46139;DHT22;32398;49.112;8.598;2024-01-30T11:27:07;4.80;99.90
46139;DHT22;32398;49.112;8.598;2024-01-30T11:29:34;4.90;99.90
46139;DHT22;32398;49.112;8.598;2024-01-30T11:32:02;4.90;99.90
46139;DHT22;32398;49.112;8.598;2024-01-30T11:34:29;4.90;99.90
46139;DHT22;32398;49.112;8.598;2024-01-30T11:36:56;4.90;99.90
46139;DHT22;32398;49.112;8.598;2024-01-30T11:39:24;5.00;99.90
46139;DHT22;32398;49.112;8.598;2024-01-30T11:41:51;5.00;99.90
46139;DHT22;32398;49.112;8.598;2024-01-30T11:44:18;5.10;99.90
46139;DHT22;32398;49.112;8.598;2024-01-30T11:46:45;5.10;99.90
46139;DHT22;32398;49.112;8.598;2024-01-30T11:49:14;5.10;99.90
46139;DHT22;32398;49.112;8.598;2024-01-30T11:51:40;5.20;99.90
46139;DHT22;32398;49.112;8.598;2024-01-30T11:54:07;5.20;99.90
46139;DHT22;32398;49.112;8.598;2024-01-30T11:56:34;5.30;99.90
46139;DHT22;32398;49.112;8.598;2024-01-30T11:59:00;5.30;99.90
46139;DHT22;32398;49.112;8.598;2024-01-30T12:01:27;5.30;99.90
46139;DHT22;32398;49.112;8.598;2024-01-30T12:03:54;5.30;99.90
46139;DHT22;32398;49.112;8.598;2024-01-30T12:06:23;5.40;99.90
46139;DHT22;32398;49.112;8.598;2024-01-30T12:08:56;5.40;99.90
46139;DHT22;32398;49.112;8.598;2024-01-30T12:11:23;5.40;99.90
46139;DHT22;32398;49.112;8.598;2024-01-30T12:13:49;5.40;99.90
46139;DHT22;32398;49.112;8.598;2024-01-30T12:16:17;5.40;99.90
46139;DHT22;32398;49.112;8.598;2024-01-30T12:18:43;5.50;99.90
46139;DHT22;32398;49.112;8.598;2024-01-30T12:21:10;5.50;99.90
46139;DHT22;32398;49.112;8.598;2024-01-30T12:23:38;5.50;99.90
46139;DHT22;32398;49.112;8.598;2024-01-30T12:26:04;5.60;99.90
46139;DHT22;32398;49.112;8.598;2024-01-30T12:28:32;5.60;99.90
46139;DHT22;32398;49.112;8.598;2024-01-30T12:31:01;5.70;99.90
46139;DHT22;32398;49.112;8.598;2024-01-30T12:33:28;5.70;99.90
46139;DHT22;32398;49.112;8.598;2024-01-30T12:35:55;5.80;99.90
46139;DHT22;32398;49.112;8.598;2024-01-30T12:38:22;5.80;99.90
46139;DHT22;32398;49.112;8.598;2024-01-30T12:40:52;5.90;99.90
46139;DHT22;32398;49.112;8.598;2024-01-30T12:43:20;5.90;99.90
46139;DHT22;32398;49.112;8.598;2024-01-30T12:45:46;6.00;99.90
46139;DHT22;32398;49.112;8.598;2024-01-30T12:48:13;6.00;99.90
46139;DHT22;32398;49.112;8.598;2024-01-30T12:50:41;6.10;99.90
46139;DHT22;32398;49.112;8.598;2024-01-30T12:53:07;6.10;99.90
46139;DHT22;32398;49.112;8.598;2024-01-30T12:55:34;6.10;99.90
46139;DHT22;32398;49.112;8.598;2024-01-30T12:58:02;6.20;99.90
46139;DHT22;32398;49.112;8.598;2024-01-30T13:00:29;6.20;99.90
46139;DHT22;32398;49.112;8.598;2024-01-30T13:02:55;6.20;99.90
46139;DHT22;32398;49.112;8.598;2024-01-30T13:05:22;6.30;99.90
46139;DHT22;32398;49.112;8.598;2024-01-30T13:07:48;6.30;99.90
46139;DHT22;32398;49.112;8.598;2024-01-30T13:10:15;6.30;99.90
46139;DHT22;32398;49.112;8.598;2024-01-30T13:12:41;6.40;99.90
46139;DHT22;32398;49.112;8.598;2024-01-30T13:15:09;6.40;99.90
46139;DHT22;32398;49.112;8.598;2024-01-30T13:17:36;6.40;99.90
46139;DHT22;32398;49.112;8.598;2024-01-30T13:20:03;6.50;99.90
46139;DHT22;32398;49.112;8.598;2024-01-30T13:22:31;6.50;99.90
46139;DHT22;32398;49.112;8.598;2024-01-30T13:24:57;6.60;99.90
46139;DHT22;32398;49.112;8.598;2024-01-30T13:27:24;6.60;99.90
46139;DHT22;32398;49.112;8.598;2024-01-30T13:29:51;6.60;99.90
46139;DHT22;32398;49.112;8.598;2024-01-30T13:32:18;6.60;99.90
46139;DHT22;32398;49.112;8.598;2024-01-30T13:34:45;6.60;99.90
46139;DHT22;32398;49.112;8.598;2024-01-30T13:37:11;6.70;99.90
46139;DHT22;32398;49.112;8.598;2024-01-30T13:39:38;6.80;99.90
46139;DHT22;32398;49.112;8.598;2024-01-30T13:42:05;6.80;99.90
46139;DHT22;32398;49.112;8.598;2024-01-30T13:44:31;6.80;99.90
46139;DHT22;32398;49.112;8.598;2024-01-30T13:46:58;6.80;99.90
46139;DHT22;32398;49.112;8.598;2024-01-30T13:49:26;6.90;99.90
46139;DHT22;32398;49.112;8.598;2024-01-30T13:51:52;6.90;99.90
46139;DHT22;32398;49.112;8.598;2024-01-30T13:54:19;6.90;99.90
46139;DHT22;32398;49.112;8.598;2024-01-30T13:56:45;6.90;99.90
46139;DHT22;32398;49.112;8.598;2024-01-30T13:59:12;6.90;99.90
46139;DHT22;32398;49.112;8.598;2024-01-30T14:01:38;6.90;99.90
46139;DHT22;32398;49.112;8.598;2024-01-30T14:04:05;7.00;99.90
46139;DHT22;32398;49.112;8.598;2024-01-30T14:06:33;7.10;99.90
46139;DHT22;32398;49.112;8.598;2024-01-30T14:09:00;7.10;99.90
46139;DHT22;32398;49.112;8.598;2024-01-30T14:11:26;7.10;99.90
46139;DHT22;32398;49.112;8.598;2024-01-30T14:13:53;7.20;99.90
46139;DHT22;32398;49.112;8.598;2024-01-30T14:16:19;7.10;99.90
46139;DHT22;32398;49.112;8.598;2024-01-30T14:18:46;7.10;99.90
46139;DHT22;32398;49.112;8.598;2024-01-30T14:21:13;7.00;99.90
46139;DHT22;32398;49.112;8.598;2024-01-30T14:23:41;7.10;99.90
46139;DHT22;32398;49.112;8.598;2024-01-30T14:26:08;7.00;99.90
46139;DHT22;32398;49.112;8.598;2024-01-30T14:28:34;7.00;99.90
46139;DHT22;32398;49.112;8.598;2024-01-30T14:31:01;7.00;99.90
46139;DHT22;32398;49.112;8.598;2024-01-30T14:33:27;6.90;99.90
46139;DHT22;32398;49.112;8.598;2024-01-30T14:35:54;7.00;99.90
46139;DHT22;32398;49.112;8.598;2024-01-30T14:38:20;6.90;99.90
46139;DHT22;32398;49.112;8.598;2024-01-30T14:40:48;6.90;99.90
46139;DHT22;32398;49.112;8.598;2024-01-30T14:43:15;6.90;99.90
46139;DHT22;32398;49.112;8.598;2024-01-30T14:45:41;6.90;99.90
46139;DHT22;32398;49.112;8.598;2024-01-30T14:48:11;6.90;99.90
46139;DHT22;32398;49.112;8.598;2024-01-30T14:50:37;7.00;99.90
46139;DHT22;32398;49.112;8.598;2024-01-30T14:53:04;6.90;99.90
46139;DHT22;32398;49.112;8.598;2024-01-30T14:55:30;6.90;99.90
46139;DHT22;32398;49.112;8.598;2024-01-30T14:57:58;7.00;99.90
46139;DHT22;32398;49.112;8.598;2024-01-30T15:00:27;7.10;99.90
46139;DHT22;32398;49.112;8.598;2024-01-30T15:02:54;7.40;99.90
46139;DHT22;32398;49.112;8.598;2024-01-30T15:05:20;7.50;99.90
46139;DHT22;32398;49.112;8.598;2024-01-30T15:07:47;7.70;99.90
46139;DHT22;32398;49.112;8.598;2024-01-30T15:10:13;7.70;99.90
46139;DHT22;32398;49.112;8.598;2024-01-30T15:12:40;7.90;99.90
46139;DHT22;32398;49.112;8.598;2024-01-30T15:15:08;7.90;99.90
46139;DHT22;32398;49.112;8.598;2024-01-30T15:17:34;8.00;99.90
46139;DHT22;32398;49.112;8.598;2024-01-30T15:20:01;8.10;99.90
46139;DHT22;32398;49.112;8.598;2024-01-30T15:22:29;8.10;99.90
46139;DHT22;32398;49.112;8.598;2024-01-30T15:24:55;8.10;99.90
46139;DHT22;32398;49.112;8.598;2024-01-30T15:27:22;8.20;99.90
46139;DHT22;32398;49.112;8.598;2024-01-30T15:29:50;8.30;99.90
46139;DHT22;32398;49.112;8.598;2024-01-30T15:32:18;8.30;99.90
46139;DHT22;32398;49.112;8.598;2024-01-30T15:34:44;8.30;99.90
46139;DHT22;32398;49.112;8.598;2024-01-30T15:37:11;8.30;99.90
46139;DHT22;32398;49.112;8.598;2024-01-30T15:39:37;8.30;99.90
46139;DHT22;32398;49.112;8.598;2024-01-30T15:42:04;8.40;99.90